createdAt,value
2022-09-20T00:01:36.898Z,10.80
2022-09-20T00:04:05.592Z,10.80
2022-09-20T00:06:34.802Z,10.80
2022-09-20T00:09:05.855Z,10.70
2022-09-20T00:11:38.469Z,10.80
2022-09-20T00:14:08.730Z,10.90
2022-09-20T00:16:39.108Z,10.80
2022-09-20T00:19:08.064Z,10.80
2022-09-20T00:21:38.055Z,10.80
2022-09-20T00:24:07.713Z,10.70
2022-09-20T00:26:38.100Z,10.70
2022-09-20T00:29:05.500Z,10.60
2022-09-20T00:31:33.058Z,10.60
2022-09-20T00:34:23.674Z,10.50
2022-09-20T00:36:51.033Z,10.50
2022-09-20T00:39:20.674Z,10.40
2022-09-20T00:41:47.783Z,10.40
2022-09-20T00:44:49.073Z,10.30
2022-09-20T00:47:38.322Z,10.30
2022-09-20T00:50:33.175Z,10.20
2022-09-20T00:53:09.712Z,10.30
2022-09-20T00:55:42.103Z,10.20
2022-09-20T00:58:14.708Z,10.20
2022-09-20T01:00:45.628Z,10.20
2022-09-20T01:03:16.006Z,10.20
2022-09-20T01:05:46.866Z,10.20
2022-09-20T01:08:14.395Z,10.20
2022-09-20T01:10:47.078Z,10.10
2022-09-20T01:13:14.717Z,10.10
2022-09-20T01:15:48.719Z,10.20
2022-09-20T01:18:18.329Z,10.20
2022-09-20T01:20:47.057Z,10.20
2022-09-20T01:23:37.709Z,10.20
2022-09-20T01:26:38.180Z,10.20
2022-09-20T01:29:33.038Z,10.20
2022-09-20T01:32:04.064Z,10.10
2022-09-20T01:34:40.479Z,10.10
2022-09-20T01:37:30.613Z,10.10
2022-09-20T01:40:10.608Z,10.10
2022-09-20T01:42:48.918Z,10.10
2022-09-20T01:45:28.571Z,10.10
2022-09-20T01:48:03.981Z,10.10
2022-09-20T01:50:37.197Z,10.10
2022-09-20T01:53:36.398Z,10.20
2022-09-20T01:56:22.123Z,10.20
2022-09-20T01:59:19.711Z,10.30
2022-09-20T02:01:58.274Z,10.20
2022-09-20T02:04:27.767Z,10.20
2022-09-20T02:07:35.191Z,10.30
2022-09-20T02:10:34.996Z,10.30
2022-09-20T02:13:29.283Z,10.30
2022-09-20T02:16:36.077Z,10.30
2022-09-20T02:19:33.033Z,10.20
2022-09-20T02:22:30.017Z,10.30
2022-09-20T02:25:15.220Z,10.30
2022-09-20T02:27:57.620Z,10.30
2022-09-20T02:30:36.405Z,10.40
2022-09-20T02:33:21.355Z,10.40
2022-09-20T02:36:23.791Z,10.50
2022-09-20T02:39:29.153Z,10.50
2022-09-20T02:42:17.662Z,10.50
2022-09-20T02:44:57.382Z,10.50
2022-09-20T02:47:37.845Z,10.60
2022-09-20T02:50:22.977Z,10.60
2022-09-20T02:53:08.670Z,10.60
2022-09-20T02:55:38.799Z,10.50
2022-09-20T02:58:29.351Z,10.50
2022-09-20T03:01:17.581Z,10.50
2022-09-20T03:04:08.626Z,10.40
2022-09-20T03:07:03.533Z,10.40
2022-09-20T03:09:51.963Z,10.30
2022-09-20T03:12:53.463Z,10.20
2022-09-20T03:15:29.602Z,10.30
2022-09-20T03:18:17.262Z,10.20
2022-09-20T03:20:55.413Z,10.20
2022-09-20T03:24:03.867Z,10.20
2022-09-20T03:26:42.551Z,10.20
2022-09-20T03:29:33.791Z,10.20
2022-09-20T03:32:25.400Z,10.10
2022-09-20T03:35:23.958Z,10.10
2022-09-20T03:38:12.213Z,10.00
2022-09-20T03:41:13.404Z,9.90
2022-09-20T03:44:00.531Z,9.90
2022-09-20T03:46:30.279Z,9.90
2022-09-20T03:49:00.494Z,9.90
2022-09-20T03:51:44.482Z,9.90
2022-09-20T03:54:45.138Z,9.90
2022-09-20T03:57:18.270Z,10.00
2022-09-20T04:00:01.795Z,10.00
2022-09-20T04:02:58.398Z,10.00
2022-09-20T04:05:53.232Z,9.90
2022-09-20T04:08:48.660Z,9.90
2022-09-20T04:11:51.992Z,9.90
2022-09-20T04:14:43.166Z,9.90
2022-09-20T04:17:24.434Z,9.90
2022-09-20T04:20:13.365Z,9.80
2022-09-20T04:22:44.691Z,9.80
2022-09-20T04:25:29.077Z,9.90
2022-09-20T04:28:12.187Z,9.90
2022-09-20T04:30:44.149Z,10.00
2022-09-20T04:33:44.287Z,10.00
2022-09-20T04:36:29.634Z,9.90
2022-09-20T04:39:02.084Z,10.00
2022-09-20T04:42:17.309Z,9.90
2022-09-20T04:44:56.642Z,9.90
2022-09-20T04:47:48.096Z,10.00
2022-09-20T04:50:38.498Z,10.10
2022-09-20T04:53:23.577Z,10.10
2022-09-20T04:56:05.856Z,10.10
2022-09-20T04:58:43.635Z,10.00
2022-09-20T05:01:17.052Z,10.00
2022-09-20T05:04:18.389Z,10.00
2022-09-20T05:07:04.612Z,10.00
2022-09-20T05:09:58.533Z,10.00
2022-09-20T05:12:55.887Z,10.10
2022-09-20T05:15:43.324Z,10.20
2022-09-20T05:18:49.014Z,10.30
2022-09-20T05:21:46.492Z,10.40
2022-09-20T05:24:27.613Z,10.40
2022-09-20T05:27:25.201Z,10.30
2022-09-20T05:30:38.039Z,10.30
2022-09-20T05:33:08.189Z,10.30
2022-09-20T05:36:02.310Z,10.30
2022-09-20T05:38:49.731Z,10.40
2022-09-20T05:41:54.982Z,10.40
2022-09-20T05:44:49.373Z,10.40
2022-09-20T05:47:59.830Z,10.40
2022-09-20T05:50:37.045Z,10.40
2022-09-20T05:53:33.325Z,10.40
2022-09-20T05:56:17.294Z,10.40
2022-09-20T05:59:07.779Z,10.40
2022-09-20T06:02:07.412Z,10.50
2022-09-20T06:04:40.295Z,10.50
2022-09-20T06:07:25.864Z,10.50
2022-09-20T06:10:17.530Z,10.60
2022-09-20T06:12:52.848Z,10.70
2022-09-20T06:15:49.610Z,10.70
2022-09-20T06:18:36.370Z,10.70
2022-09-20T06:21:46.955Z,10.70
2022-09-20T06:24:36.685Z,10.80
2022-09-20T06:27:17.775Z,10.80
2022-09-20T06:30:06.429Z,10.90
2022-09-20T06:32:56.771Z,10.90
2022-09-20T06:35:30.051Z,10.90
2022-09-20T06:38:41.826Z,10.80
2022-09-20T06:41:29.903Z,10.80
2022-09-20T06:44:00.291Z,10.70
2022-09-20T06:46:33.035Z,10.80
2022-09-20T06:49:04.147Z,10.90
2022-09-20T06:51:36.422Z,10.90
2022-09-20T06:54:05.214Z,11.00
2022-09-20T06:56:36.924Z,11.10
2022-09-20T06:59:15.121Z,11.10
2022-09-20T07:01:43.436Z,11.20
2022-09-20T07:04:10.761Z,11.10
2022-09-20T07:06:38.144Z,11.10
2022-09-20T07:09:10.332Z,11.10
2022-09-20T07:11:37.520Z,11.10
2022-09-20T07:14:08.014Z,11.10
2022-09-20T07:16:38.357Z,11.00
2022-09-20T07:19:08.392Z,10.90
2022-09-20T07:21:40.471Z,10.80
2022-09-20T07:24:10.359Z,10.80
2022-09-20T07:26:39.071Z,10.90
2022-09-20T07:29:08.732Z,10.90
2022-09-20T07:31:38.314Z,11.00
2022-09-20T07:34:11.066Z,11.10
2022-09-20T07:36:40.788Z,11.10
2022-09-20T07:39:07.877Z,11.30
2022-09-20T07:41:34.910Z,11.30
2022-09-20T07:44:20.906Z,11.40
2022-09-20T07:46:49.412Z,11.40
2022-09-20T07:49:19.554Z,11.50
2022-09-20T07:51:52.276Z,11.60
2022-09-20T07:54:22.294Z,11.60
2022-09-20T07:56:49.379Z,11.60
2022-09-20T07:59:17.038Z,11.60
2022-09-20T08:01:44.420Z,11.70
2022-09-20T08:04:11.965Z,11.70
2022-09-20T08:06:43.742Z,11.70
2022-09-20T08:09:12.383Z,11.80
2022-09-20T08:11:43.525Z,11.70
2022-09-20T08:14:17.513Z,11.70
2022-09-20T08:16:47.452Z,11.80
2022-09-20T08:19:20.873Z,11.90
2022-09-20T08:21:53.345Z,12.00
2022-09-20T08:24:26.767Z,12.10
2022-09-20T08:26:54.196Z,12.20
2022-09-20T08:29:23.843Z,12.20
2022-09-20T08:31:53.053Z,12.40
2022-09-20T08:34:20.449Z,12.40
2022-09-20T08:36:50.113Z,12.30
2022-09-20T08:42:25.120Z,12.30
2022-09-20T08:45:21.818Z,12.30
2022-09-20T08:47:58.903Z,12.30
2022-09-20T08:50:30.887Z,12.50
2022-09-20T08:53:05.021Z,12.70
2022-09-20T08:55:36.828Z,12.90
2022-09-20T08:58:08.504Z,13.10
2022-09-20T09:00:38.363Z,13.10
2022-09-20T09:03:13.254Z,13.10
2022-09-20T09:05:49.166Z,13.00
2022-09-20T09:08:37.607Z,12.90
2022-09-20T09:11:13.998Z,12.80
2022-09-20T09:14:02.193Z,12.80
2022-09-20T09:16:35.402Z,12.80
2022-09-20T09:19:33.244Z,12.80
2022-09-20T09:22:03.086Z,12.90
2022-09-20T09:24:35.186Z,13.10
2022-09-20T09:27:16.425Z,13.30
2022-09-20T09:29:51.071Z,13.30
2022-09-20T09:32:31.005Z,13.30
2022-09-20T09:35:28.066Z,13.20
2022-09-20T09:38:00.862Z,13.30
2022-09-20T09:40:31.609Z,13.30
2022-09-20T09:43:01.310Z,13.20
2022-09-20T09:45:39.056Z,13.30
2022-09-20T09:48:27.717Z,13.40
2022-09-20T09:51:19.753Z,13.40
2022-09-20T09:53:49.247Z,13.20
2022-09-20T09:56:37.586Z,13.00
2022-09-20T09:59:28.365Z,12.90
2022-09-20T10:02:23.476Z,12.70
2022-09-20T10:05:03.185Z,12.70
2022-09-20T10:07:44.870Z,12.60
2022-09-20T10:10:34.269Z,12.60
2022-09-20T10:13:15.032Z,12.60
2022-09-20T10:15:51.217Z,12.60
2022-09-20T10:18:39.831Z,12.50
2022-09-20T10:21:28.902Z,12.40
2022-09-20T10:24:31.026Z,12.30
2022-09-20T10:27:05.963Z,12.40
2022-09-20T10:30:10.672Z,12.40
2022-09-20T10:32:55.291Z,12.50
2022-09-20T10:35:53.371Z,12.70
2022-09-20T10:38:48.946Z,12.90
2022-09-20T10:42:23.922Z,13.00
2022-09-20T10:45:24.576Z,13.00
2022-09-20T10:48:08.227Z,13.00
2022-09-20T10:51:02.716Z,13.00
2022-09-20T10:53:41.419Z,13.10
2022-09-20T10:56:20.524Z,13.20
2022-09-20T10:59:07.832Z,13.20
2022-09-20T11:01:50.216Z,13.20
2022-09-20T11:04:28.810Z,13.20
2022-09-20T11:07:07.937Z,13.30
2022-09-20T11:09:40.881Z,13.30
2022-09-20T11:12:33.613Z,13.30
2022-09-20T11:15:12.348Z,13.20
2022-09-20T11:17:59.723Z,13.30
2022-09-20T11:20:33.326Z,13.20
2022-09-20T11:23:10.321Z,13.10
2022-09-20T11:25:51.924Z,13.00
2022-09-20T11:28:33.366Z,12.90
2022-09-20T11:31:20.243Z,13.00
2022-09-20T11:33:54.489Z,13.20
2022-09-20T11:36:27.644Z,13.30
2022-09-20T11:39:03.716Z,13.40
2022-09-20T11:41:36.653Z,13.50
2022-09-20T11:44:13.751Z,13.60
2022-09-20T11:46:52.300Z,13.60
2022-09-20T11:49:29.166Z,13.40
2022-09-20T11:52:33.592Z,13.30
2022-09-20T11:55:24.249Z,13.30
2022-09-20T11:58:16.700Z,13.40
2022-09-20T12:00:45.180Z,13.40
2022-09-20T12:03:30.748Z,13.50
2022-09-20T12:06:23.675Z,13.70
2022-09-20T12:08:52.115Z,14.00
2022-09-20T12:11:36.080Z,14.10
2022-09-20T12:14:16.865Z,14.10
2022-09-20T12:16:46.576Z,13.90
2022-09-20T12:19:14.676Z,13.80
2022-09-20T12:22:01.842Z,13.80
2022-09-20T12:24:35.375Z,13.90
2022-09-20T12:27:27.337Z,13.90
2022-09-20T12:30:16.837Z,13.90
2022-09-20T12:32:47.420Z,13.90
2022-09-20T12:35:36.168Z,14.00
2022-09-20T12:38:20.991Z,14.20
2022-09-20T12:41:08.540Z,14.30
2022-09-20T12:43:46.464Z,14.40
2022-09-20T12:46:38.995Z,14.50
2022-09-20T12:49:54.203Z,14.50
2022-09-20T12:52:50.691Z,14.50
2022-09-20T12:55:33.538Z,14.50
2022-09-20T12:58:16.015Z,14.50
2022-09-20T13:00:59.203Z,14.50
2022-09-20T13:03:32.037Z,14.70
2022-09-20T13:06:08.898Z,14.80
2022-09-20T13:08:59.831Z,14.70
2022-09-20T13:11:43.379Z,14.60
2022-09-20T13:14:20.673Z,14.60
2022-09-20T13:16:59.039Z,14.50
2022-09-20T13:19:39.014Z,14.40
2022-09-20T13:22:13.365Z,14.30
2022-09-20T13:24:46.946Z,14.50
2022-09-20T13:27:22.253Z,14.60
2022-09-20T13:29:50.967Z,14.70
2022-09-20T13:32:31.673Z,14.70
2022-09-20T13:35:14.456Z,14.80
2022-09-20T13:37:59.329Z,14.70
2022-09-20T13:40:33.283Z,14.80
2022-09-20T13:43:23.509Z,14.90
2022-09-20T13:46:02.270Z,14.90
2022-09-20T13:48:32.562Z,15.10
2022-09-20T13:51:02.595Z,15.10
2022-09-20T13:53:41.485Z,15.20
2022-09-20T13:56:16.458Z,15.00
2022-09-20T13:58:43.867Z,15.10
2022-09-20T14:01:32.738Z,15.20
2022-09-20T14:04:15.633Z,15.30
2022-09-20T14:06:43.537Z,15.30
2022-09-20T14:09:26.523Z,15.30
2022-09-20T14:11:58.766Z,15.20
2022-09-20T14:14:29.350Z,14.90
2022-09-20T14:17:01.387Z,14.90
2022-09-20T14:19:38.920Z,15.00
2022-09-20T14:22:07.297Z,15.00
2022-09-20T14:24:37.826Z,15.00
2022-09-20T14:27:23.526Z,14.90
2022-09-20T14:29:53.198Z,14.90
2022-09-20T14:32:22.573Z,14.80
2022-09-20T14:34:56.022Z,14.90
2022-09-20T14:37:34.159Z,15.00
2022-09-20T14:40:23.603Z,15.10
2022-09-20T14:43:05.370Z,15.10
2022-09-20T14:45:39.359Z,15.00
2022-09-20T14:48:31.999Z,15.00
2022-09-20T14:51:22.199Z,15.00
2022-09-20T14:54:05.211Z,15.00
2022-09-20T14:56:42.170Z,15.00
2022-09-20T14:59:09.534Z,15.10
2022-09-20T15:01:41.052Z,15.10
2022-09-20T15:04:10.628Z,15.10
2022-09-20T15:06:43.419Z,15.10
2022-09-20T15:09:15.678Z,15.00
2022-09-20T15:11:49.986Z,15.00
2022-09-20T15:14:17.166Z,15.10
2022-09-20T15:16:47.312Z,15.20
2022-09-20T15:19:16.761Z,15.30
2022-09-20T15:21:46.350Z,15.30
2022-09-20T15:24:13.804Z,15.20
2022-09-20T15:26:45.139Z,15.30
2022-09-20T15:29:17.365Z,15.30
2022-09-20T15:31:47.585Z,15.20
2022-09-20T15:34:15.436Z,15.10
2022-09-20T15:36:44.935Z,14.90
2022-09-20T15:39:12.405Z,14.80
2022-09-20T15:41:40.128Z,14.70
2022-09-20T15:44:08.075Z,14.60
2022-09-20T15:46:42.102Z,14.30
2022-09-20T15:49:14.350Z,14.30
2022-09-20T15:51:44.085Z,14.20
2022-09-20T15:54:16.315Z,14.20
2022-09-20T15:56:46.201Z,14.10
2022-09-20T15:59:19.265Z,13.90
2022-09-20T16:01:49.405Z,14.00
2022-09-20T16:04:19.509Z,13.90
2022-09-20T16:06:52.657Z,13.90
2022-09-20T16:09:22.427Z,13.90
2022-09-20T16:11:51.876Z,13.90
2022-09-20T16:14:21.360Z,13.90
2022-09-20T16:16:48.718Z,13.90
2022-09-20T16:19:20.564Z,13.80
2022-09-20T16:21:59.204Z,13.70
2022-09-20T16:24:30.225Z,13.60
2022-09-20T16:26:58.512Z,13.60
2022-09-20T16:29:29.978Z,13.50
2022-09-20T16:32:00.765Z,13.50
2022-09-20T16:34:33.491Z,13.50
2022-09-20T16:37:08.825Z,13.40
2022-09-20T16:39:36.085Z,13.40
2022-09-20T16:42:07.521Z,13.30
2022-09-20T16:44:42.662Z,13.30
2022-09-20T16:47:24.006Z,13.20
2022-09-20T16:49:54.165Z,13.20
2022-09-20T16:52:26.529Z,13.10
2022-09-20T16:54:54.103Z,13.10
2022-09-20T16:57:22.378Z,13.10
2022-09-20T16:59:55.724Z,13.00
2022-09-20T17:02:23.152Z,13.00
2022-09-20T17:04:52.789Z,13.00
2022-09-20T17:07:23.615Z,12.90
2022-09-20T17:09:50.693Z,12.80
2022-09-20T17:12:21.909Z,12.80
2022-09-20T17:14:49.817Z,12.80
2022-09-20T17:17:22.816Z,12.70
2022-09-20T17:19:50.212Z,12.70
2022-09-20T17:22:17.451Z,12.70
2022-09-20T17:24:50.017Z,12.60
2022-09-20T17:27:17.300Z,12.60
2022-09-20T17:29:45.450Z,12.60
2022-09-20T17:32:15.948Z,12.60
2022-09-20T17:34:46.164Z,12.60
2022-09-20T17:37:15.496Z,12.50
2022-09-20T17:39:42.619Z,12.50
2022-09-20T17:42:12.291Z,12.50
2022-09-20T17:44:42.007Z,12.50
2022-09-20T17:47:09.193Z,12.50
2022-09-20T17:49:40.731Z,12.60
2022-09-20T17:52:08.399Z,12.50
2022-09-20T17:54:37.759Z,12.50
2022-09-20T17:57:05.990Z,12.40
2022-09-20T17:59:34.440Z,12.30
2022-09-20T18:02:04.215Z,12.30
2022-09-20T18:04:36.039Z,12.20
2022-09-20T18:07:05.907Z,12.20
2022-09-20T18:09:33.246Z,12.20
2022-09-20T18:12:04.937Z,12.20
2022-09-20T18:14:32.724Z,12.20
2022-09-20T18:17:03.606Z,12.20
2022-09-20T18:19:34.281Z,12.10
2022-09-20T18:22:08.586Z,12.10
2022-09-20T18:24:37.738Z,12.10
2022-09-20T18:27:07.862Z,12.00
2022-09-20T18:29:39.849Z,12.00
2022-09-20T18:32:09.866Z,12.10
2022-09-20T18:34:37.109Z,12.00
2022-09-20T18:37:13.779Z,12.00
2022-09-20T18:39:44.776Z,12.00
2022-09-20T18:42:12.048Z,12.00
2022-09-20T18:44:43.688Z,11.90
2022-09-20T18:47:11.199Z,11.90
2022-09-20T18:49:40.555Z,11.80
2022-09-20T18:52:10.696Z,11.80
2022-09-20T18:54:39.093Z,11.80
2022-09-20T18:57:10.124Z,11.80
2022-09-20T18:59:40.604Z,11.70
2022-09-20T19:02:24.122Z,11.70
2022-09-20T19:04:58.951Z,11.60
2022-09-20T19:07:44.499Z,11.60
2022-09-20T19:10:29.275Z,11.50
2022-09-20T19:13:06.237Z,11.50
2022-09-20T19:15:51.675Z,11.40
2022-09-20T19:18:35.723Z,11.40
2022-09-20T19:21:26.099Z,11.50
2022-09-20T19:24:29.470Z,11.50
2022-09-20T19:26:59.723Z,11.60
2022-09-20T19:29:29.291Z,11.60
2022-09-20T19:31:58.986Z,11.60
2022-09-20T19:34:32.123Z,11.60
2022-09-20T19:37:24.103Z,11.50
2022-09-20T19:40:09.093Z,11.50
2022-09-20T19:42:53.855Z,11.50
2022-09-20T19:45:47.009Z,11.40
2022-09-20T19:48:48.248Z,11.40
2022-09-20T19:51:17.097Z,11.40
2022-09-20T19:53:46.890Z,11.50
2022-09-20T19:56:48.207Z,11.50
2022-09-20T19:59:17.705Z,11.50
2022-09-20T20:01:48.393Z,11.50
2022-09-20T20:04:16.395Z,11.40
2022-09-20T20:07:14.046Z,11.40
2022-09-20T20:09:47.183Z,11.30
2022-09-20T20:12:32.106Z,11.30
2022-09-20T20:15:39.766Z,11.30
2022-09-20T20:18:31.926Z,11.30
2022-09-20T20:21:01.237Z,11.30
2022-09-20T20:23:47.822Z,11.20
2022-09-20T20:26:25.569Z,11.30
2022-09-20T20:28:55.763Z,11.20
2022-09-20T20:31:23.270Z,11.20
2022-09-20T20:33:50.456Z,11.20
2022-09-20T20:36:20.120Z,11.20
2022-09-20T20:38:50.397Z,11.20
2022-09-20T20:41:23.692Z,11.20
2022-09-20T20:43:56.343Z,11.20
2022-09-20T20:46:24.435Z,11.10
2022-09-20T20:48:51.812Z,11.10
2022-09-20T20:51:24.832Z,11.10
2022-09-20T20:53:54.527Z,11.10
2022-09-20T20:56:26.503Z,11.10
2022-09-20T20:59:00.555Z,11.10
2022-09-20T21:01:39.550Z,11.10
2022-09-20T21:04:08.873Z,11.10
2022-09-20T21:06:41.544Z,11.00
2022-09-20T21:09:10.824Z,11.00
2022-09-20T21:11:43.736Z,10.90
2022-09-20T21:14:12.800Z,10.90
2022-09-20T21:16:45.429Z,10.90
2022-09-20T21:19:15.859Z,10.90
2022-09-20T21:21:45.196Z,10.80
2022-09-20T21:24:15.375Z,10.80
2022-09-20T21:26:48.503Z,10.70
2022-09-20T21:29:16.716Z,10.70
2022-09-20T21:31:48.694Z,10.60
2022-09-20T21:34:18.699Z,10.60
2022-09-20T21:36:45.802Z,10.60
2022-09-20T21:39:17.848Z,10.60
2022-09-20T21:41:47.244Z,10.50
2022-09-20T21:44:14.972Z,10.60
2022-09-20T21:46:42.637Z,10.50
2022-09-20T21:49:11.487Z,10.50
2022-09-20T21:51:41.501Z,10.60
2022-09-20T21:54:09.295Z,10.50
2022-09-20T21:56:41.245Z,10.50
2022-09-20T21:59:08.454Z,10.60
2022-09-20T22:01:40.343Z,10.50
2022-09-20T22:04:12.018Z,10.60
2022-09-20T22:06:47.659Z,10.50
2022-09-20T22:09:17.166Z,10.50
2022-09-20T22:11:47.062Z,10.50
2022-09-20T22:14:17.387Z,10.50
2022-09-20T22:16:51.241Z,10.50
2022-09-20T22:19:19.187Z,10.60
2022-09-20T22:21:48.515Z,10.60
2022-09-20T22:24:19.154Z,10.60
2022-09-20T22:26:51.100Z,10.60
2022-09-20T22:29:22.089Z,10.60
2022-09-20T22:31:50.085Z,10.60
2022-09-20T22:34:22.264Z,10.70
2022-09-20T22:36:50.267Z,10.60
2022-09-20T22:39:24.115Z,10.60
2022-09-20T22:41:52.253Z,10.60
2022-09-20T22:44:19.311Z,10.50
2022-09-20T22:46:46.518Z,10.40
2022-09-20T22:49:13.977Z,10.40
2022-09-20T22:51:46.071Z,10.40
2022-09-20T22:54:13.570Z,10.30
2022-09-20T22:56:43.202Z,10.30
2022-09-20T22:59:12.726Z,10.20
2022-09-20T23:01:45.404Z,10.20
2022-09-20T23:04:20.433Z,10.20
2022-09-20T23:06:49.737Z,10.20
2022-09-20T23:09:22.535Z,10.20
2022-09-20T23:11:51.928Z,10.20
2022-09-20T23:14:20.895Z,10.20
2022-09-20T23:16:50.833Z,10.10
2022-09-20T23:19:22.778Z,10.10
2022-09-20T23:21:52.198Z,10.10
2022-09-20T23:24:19.548Z,10.00
2022-09-20T23:26:49.174Z,10.10
2022-09-20T23:29:17.016Z,10.10
2022-09-20T23:31:47.814Z,10.00
2022-09-20T23:34:17.283Z,9.90
2022-09-20T23:36:47.271Z,9.90
2022-09-20T23:39:15.290Z,10.00
2022-09-20T23:41:45.778Z,9.90
2022-09-20T23:44:16.203Z,9.80
2022-09-20T23:46:43.350Z,9.80
2022-09-20T23:49:12.579Z,9.80
2022-09-20T23:51:39.943Z,9.80
2022-09-20T23:54:09.313Z,9.70
2022-09-20T23:56:40.265Z,9.80
2022-09-20T23:59:07.640Z,9.70
